DNO575 OMDB-VABB
Flight info
| Callsign | DNO575 |
|---|---|
| Flight time | N/A |
| Altitude | 33000 |
| Route | IVURO M677 LALDO B505 NADSO A777 VAXIM L301 KARKU M638 EXOLU POKON2A |
| Aircraft | A321/M-SDE3FGHIRWY/LB1 |
Departure
| Time | 2026-04-23 16:25 |
|---|---|
| Airport | Dubai International Airport (OMDB) |
Arrival
| Time | N/A |
|---|---|
| Airport | Chhatrapati Shivaji Maharaj International Airport (VABB) |
| Time | Latitude | Longitude | Altitude | Speed | Heading |
|---|---|---|---|---|---|
| 2026-04-23 15:50 | 25.25777 | 55.34699 | 23 ft | 0 kts | 213° |
| 2026-04-23 16:12 | 25.25777 | 55.34700 | 22 ft | 1 kts | 213° |
| 2026-04-23 16:12 | 25.25799 | 55.34714 | 24 ft | 4 kts | 205° |
| 2026-04-23 16:12 | 25.25823 | 55.34724 | 24 ft | 4 kts | 192° |
| 2026-04-23 16:13 | 25.25849 | 55.34726 | 24 ft | 4 kts | 158° |
| 2026-04-23 16:13 | 25.25862 | 55.34717 | 24 ft | 0 kts | 122° |
| 2026-04-23 16:16 | 25.25860 | 55.34719 | 22 ft | 2 kts | 122° |
| 2026-04-23 16:16 | 25.25825 | 55.34782 | 22 ft | 13 kts | 122° |
| 2026-04-23 16:16 | 25.25780 | 55.34865 | 24 ft | 12 kts | 121° |
| 2026-04-23 16:16 | 25.25739 | 55.34939 | 22 ft | 11 kts | 121° |
| 2026-04-23 16:17 | 25.25704 | 55.35005 | 22 ft | 9 kts | 121° |
| 2026-04-23 16:17 | 25.25674 | 55.35061 | 22 ft | 8 kts | 120° |
| 2026-04-23 16:17 | 25.25654 | 55.35113 | 24 ft | 7 kts | 95° |
| 2026-04-23 16:17 | 25.25706 | 55.35177 | 22 ft | 17 kts | 31° |
| 2026-04-23 16:18 | 25.25807 | 55.35246 | 22 ft | 17 kts | 32° |
| 2026-04-23 16:18 | 25.25902 | 55.35310 | 22 ft | 15 kts | 32° |
| 2026-04-23 16:18 | 25.25976 | 55.35385 | 22 ft | 15 kts | 61° |
| 2026-04-23 16:18 | 25.25989 | 55.35531 | 22 ft | 24 kts | 107° |
| 2026-04-23 16:19 | 25.25904 | 55.35691 | 23 ft | 23 kts | 122° |
| 2026-04-23 16:19 | 25.25820 | 55.35837 | 22 ft | 22 kts | 123° |
| 2026-04-23 16:19 | 25.25742 | 55.35971 | 22 ft | 20 kts | 123° |
| 2026-04-23 16:19 | 25.25671 | 55.36100 | 22 ft | 19 kts | 120° |
| 2026-04-23 16:20 | 25.25606 | 55.36222 | 23 ft | 19 kts | 121° |
| 2026-04-23 16:20 | 25.25523 | 55.36368 | 24 ft | 24 kts | 122° |
| 2026-04-23 16:20 | 25.25438 | 55.36519 | 22 ft | 22 kts | 123° |
| 2026-04-23 16:20 | 25.25360 | 55.36662 | 23 ft | 21 kts | 120° |
| 2026-04-23 16:21 | 25.25285 | 55.36796 | 22 ft | 20 kts | 122° |
| 2026-04-23 16:21 | 25.25217 | 55.36923 | 22 ft | 19 kts | 120° |
| 2026-04-23 16:21 | 25.25151 | 55.37041 | 22 ft | 19 kts | 122° |
| 2026-04-23 16:21 | 25.25085 | 55.37158 | 23 ft | 17 kts | 120° |
| 2026-04-23 16:22 | 25.25024 | 55.37272 | 22 ft | 19 kts | 121° |
| 2026-04-23 16:22 | 25.24959 | 55.37390 | 23 ft | 17 kts | 122° |
| 2026-04-23 16:22 | 25.24898 | 55.37498 | 22 ft | 17 kts | 122° |
| 2026-04-23 16:22 | 25.24823 | 55.37636 | 22 ft | 24 kts | 120° |
| 2026-04-23 16:23 | 25.24737 | 55.37791 | 22 ft | 23 kts | 122° |
| 2026-04-23 16:23 | 25.24679 | 55.37918 | 22 ft | 15 kts | 94° |
| 2026-04-23 16:23 | 25.24732 | 55.37996 | 22 ft | 13 kts | 30° |
| 2026-04-23 16:23 | 25.24809 | 55.38010 | 23 ft | 11 kts | 322° |
| 2026-04-23 16:24 | 25.24874 | 55.37897 | 23 ft | 33 kts | 301° |
| 2026-04-23 16:24 | 25.25118 | 55.37461 | 22 ft | 97 kts | 301° |
| 2026-04-23 16:24 | 25.25565 | 55.36660 | 24 ft | 145 kts | 301° |
| 2026-04-23 16:24 | 25.26163 | 55.35589 | 64 ft | 178 kts | 302° |
| 2026-04-23 16:25 | 25.26815 | 55.34430 | 610 ft | 177 kts | 304° |
| 2026-04-23 16:25 | 25.27469 | 55.33265 | 1138 ft | 179 kts | 303° |
| 2026-04-23 16:25 | 25.28115 | 55.32088 | 1710 ft | 179 kts | 303° |
| 2026-04-23 16:25 | 25.28767 | 55.30890 | 2033 ft | 186 kts | 305° |
| 2026-04-23 16:26 | 25.29580 | 55.29791 | 2304 ft | 184 kts | 332° |
| 2026-04-23 16:26 | 25.30797 | 55.29436 | 2562 ft | 186 kts | 2° |
| 2026-04-23 16:26 | 25.32106 | 55.29502 | 2805 ft | 189 kts | 2° |
| 2026-04-23 16:26 | 25.33431 | 55.29551 | 3136 ft | 191 kts | 1° |
| 2026-04-23 16:27 | 25.34778 | 55.29592 | 3407 ft | 198 kts | 1° |
| 2026-04-23 16:27 | 25.36178 | 55.29629 | 3698 ft | 203 kts | 1° |
| 2026-04-23 16:27 | 25.37599 | 55.29663 | 3995 ft | 206 kts | 0° |
| 2026-04-23 16:27 | 25.39026 | 55.29847 | 4294 ft | 210 kts | 15° |
| 2026-04-23 16:28 | 25.40344 | 55.30597 | 4564 ft | 218 kts | 36° |
| 2026-04-23 16:28 | 25.41386 | 55.31847 | 4819 ft | 224 kts | 50° |
| 2026-04-23 16:28 | 25.42366 | 55.33201 | 5115 ft | 226 kts | 50° |
| 2026-04-23 16:28 | 25.43358 | 55.34563 | 5409 ft | 228 kts | 50° |
| 2026-04-23 16:29 | 25.44364 | 55.35935 | 5706 ft | 231 kts | 50° |
| 2026-04-23 16:29 | 25.45395 | 55.37339 | 5872 ft | 240 kts | 50° |
| 2026-04-23 16:29 | 25.46468 | 55.38806 | 6001 ft | 250 kts | 50° |
| 2026-04-23 16:29 | 25.47591 | 55.40341 | 6096 ft | 265 kts | 50° |
| 2026-04-23 16:30 | 25.48776 | 55.41966 | 6214 ft | 284 kts | 51° |
| 2026-04-23 16:30 | 25.50026 | 55.43729 | 6482 ft | 296 kts | 52° |
| 2026-04-23 16:30 | 25.51291 | 55.45549 | 6945 ft | 300 kts | 53° |
| 2026-04-23 16:30 | 25.52287 | 55.47580 | 7424 ft | 303 kts | 73° |
| 2026-04-23 16:31 | 25.52617 | 55.49875 | 7925 ft | 303 kts | 94° |
| 2026-04-23 16:31 | 25.52247 | 55.52152 | 8439 ft | 301 kts | 114° |
| 2026-04-23 16:31 | 25.51265 | 55.54179 | 8962 ft | 300 kts | 126° |
| 2026-04-23 16:31 | 25.50141 | 55.56136 | 9493 ft | 303 kts | 125° |
| 2026-04-23 16:32 | 25.49011 | 55.58120 | 10015 ft | 305 kts | 125° |
| 2026-04-23 16:32 | 25.47859 | 55.60144 | 10249 ft | 320 kts | 125° |
| 2026-04-23 16:32 | 25.46640 | 55.62281 | 10375 ft | 337 kts | 125° |
| 2026-04-23 16:32 | 25.45358 | 55.64525 | 10492 ft | 353 kts | 125° |
| 2026-04-23 16:33 | 25.44015 | 55.66875 | 10618 ft | 369 kts | 125° |
| 2026-04-23 16:33 | 25.42805 | 55.69437 | 10819 ft | 383 kts | 113° |
| 2026-04-23 16:33 | 25.42186 | 55.72328 | 11253 ft | 391 kts | 99° |
| 2026-04-23 16:33 | 25.41839 | 55.75320 | 11753 ft | 393 kts | 99° |
| 2026-04-23 16:34 | 25.41490 | 55.78326 | 12258 ft | 396 kts | 100° |
| 2026-04-23 16:34 | 25.41107 | 55.81308 | 12744 ft | 399 kts | 101° |
| 2026-04-23 16:34 | 25.40690 | 55.84351 | 13233 ft | 402 kts | 102° |
| 2026-04-23 16:34 | 25.40255 | 55.87420 | 13725 ft | 405 kts | 102° |
| 2026-04-23 16:35 | 25.39814 | 55.90504 | 14158 ft | 408 kts | 102° |
| 2026-04-23 16:35 | 25.39375 | 55.93614 | 14624 ft | 410 kts | 102° |
| 2026-04-23 16:35 | 25.38943 | 55.96739 | 15069 ft | 413 kts | 101° |
| 2026-04-23 16:35 | 25.38659 | 55.98822 | 15344 ft | 415 kts | 101° |
| 2026-04-23 16:36 | 25.38227 | 56.01991 | 15749 ft | 419 kts | 101° |
| 2026-04-23 16:36 | 25.37791 | 56.05190 | 16136 ft | 422 kts | 101° |
| 2026-04-23 16:36 | 25.37352 | 56.08413 | 16532 ft | 426 kts | 100° |
| 2026-04-23 16:36 | 25.36911 | 56.11666 | 16918 ft | 429 kts | 100° |
| 2026-04-23 16:37 | 25.36462 | 56.14942 | 17299 ft | 433 kts | 100° |
| 2026-04-23 16:37 | 25.36006 | 56.18240 | 17667 ft | 436 kts | 100° |
| 2026-04-23 16:37 | 25.35541 | 56.21572 | 18035 ft | 440 kts | 99° |
| 2026-04-23 16:37 | 25.35071 | 56.24927 | 18375 ft | 443 kts | 99° |
| 2026-04-23 16:38 | 25.34600 | 56.28298 | 18722 ft | 445 kts | 99° |
| 2026-04-23 16:38 | 25.34126 | 56.31696 | 19008 ft | 448 kts | 99° |
| 2026-04-23 16:38 | 25.33650 | 56.35104 | 19412 ft | 448 kts | 99° |
| 2026-04-23 16:38 | 25.33173 | 56.38515 | 19772 ft | 450 kts | 99° |
| 2026-04-23 16:39 | 25.32694 | 56.41948 | 20087 ft | 453 kts | 99° |
| 2026-04-23 16:39 | 25.32215 | 56.45396 | 20410 ft | 455 kts | 99° |
| 2026-04-23 16:39 | 25.31733 | 56.48868 | 20731 ft | 458 kts | 99° |
| 2026-04-23 16:39 | 25.31247 | 56.52353 | 21060 ft | 460 kts | 99° |
| 2026-04-23 16:40 | 25.30756 | 56.55855 | 21378 ft | 463 kts | 99° |
| 2026-04-23 16:40 | 25.30168 | 56.59357 | 21687 ft | 464 kts | 106° |
| 2026-04-23 16:40 | 25.29146 | 56.62732 | 22024 ft | 463 kts | 115° |
| 2026-04-23 16:40 | 25.27890 | 56.66023 | 22329 ft | 466 kts | 115° |
| 2026-04-23 16:41 | 25.26630 | 56.69329 | 22627 ft | 468 kts | 115° |
| 2026-04-23 16:41 | 25.25366 | 56.72657 | 22921 ft | 471 kts | 115° |
| 2026-04-23 16:41 | 25.24099 | 56.76004 | 23214 ft | 473 kts | 115° |
| 2026-04-23 16:41 | 25.22825 | 56.79372 | 23484 ft | 476 kts | 115° |
| 2026-04-23 16:42 | 25.21548 | 56.82749 | 23726 ft | 478 kts | 115° |
| 2026-04-23 16:42 | 25.20262 | 56.86138 | 23987 ft | 480 kts | 115° |
| 2026-04-23 16:42 | 25.18967 | 56.89546 | 24254 ft | 481 kts | 115° |
| 2026-04-23 16:42 | 25.17671 | 56.92952 | 24522 ft | 483 kts | 115° |
| 2026-04-23 16:43 | 25.16365 | 56.96375 | 24794 ft | 484 kts | 115° |
| 2026-04-23 16:43 | 25.15073 | 56.99759 | 25041 ft | 486 kts | 114° |
| 2026-04-23 16:43 | 25.13758 | 57.03202 | 25292 ft | 487 kts | 114° |
| 2026-04-23 16:43 | 25.12440 | 57.06649 | 25560 ft | 488 kts | 114° |
| 2026-04-23 16:44 | 25.11116 | 57.10111 | 25811 ft | 490 kts | 114° |
| 2026-04-23 16:44 | 25.09789 | 57.13578 | 26055 ft | 492 kts | 114° |
| 2026-04-23 16:44 | 25.08456 | 57.17063 | 26301 ft | 493 kts | 114° |
| 2026-04-23 16:44 | 25.07124 | 57.20553 | 26547 ft | 494 kts | 114° |
| 2026-04-23 16:45 | 25.05788 | 57.24054 | 26792 ft | 496 kts | 114° |
| 2026-04-23 16:45 | 25.04443 | 57.27565 | 27037 ft | 497 kts | 114° |
| 2026-04-23 16:45 | 25.03091 | 57.31081 | 27282 ft | 499 kts | 114° |
| 2026-04-23 16:45 | 25.01736 | 57.34610 | 27530 ft | 500 kts | 114° |
| 2026-04-23 16:46 | 25.00375 | 57.38146 | 27801 ft | 501 kts | 114° |
| 2026-04-23 16:46 | 24.99012 | 57.41677 | 28119 ft | 499 kts | 114° |
| 2026-04-23 16:46 | 24.97653 | 57.45197 | 28442 ft | 499 kts | 114° |
| 2026-04-23 16:46 | 24.96316 | 57.48663 | 28753 ft | 498 kts | 114° |
| 2026-04-23 16:47 | 24.94943 | 57.52219 | 29068 ft | 497 kts | 114° |
| 2026-04-23 16:47 | 24.93588 | 57.55722 | 29377 ft | 497 kts | 114° |
| 2026-04-23 16:47 | 24.92252 | 57.59173 | 29676 ft | 496 kts | 114° |
| 2026-04-23 16:47 | 24.90900 | 57.62663 | 29965 ft | 496 kts | 113° |
| 2026-04-23 16:48 | 24.89548 | 57.66155 | 30208 ft | 495 kts | 113° |
| 2026-04-23 16:48 | 24.88198 | 57.69638 | 30486 ft | 494 kts | 113° |
| 2026-04-23 16:48 | 24.86852 | 57.73110 | 30753 ft | 493 kts | 113° |
| 2026-04-23 16:48 | 24.85506 | 57.76580 | 31009 ft | 492 kts | 113° |
| 2026-04-23 16:49 | 24.84598 | 57.78920 | 31180 ft | 492 kts | 113° |
| 2026-04-23 16:49 | 24.82812 | 57.83499 | 31501 ft | 491 kts | 114° |
| 2026-04-23 16:49 | 24.81397 | 57.86931 | 31685 ft | 493 kts | 115° |
| 2026-04-23 16:49 | 24.79919 | 57.90341 | 31885 ft | 494 kts | 116° |
| 2026-04-23 16:50 | 24.78405 | 57.93725 | 32123 ft | 493 kts | 117° |
| 2026-04-23 16:50 | 24.76884 | 57.97096 | 32447 ft | 491 kts | 117° |
| 2026-04-23 16:50 | 24.75372 | 58.00458 | 32730 ft | 490 kts | 116° |
| 2026-04-23 16:50 | 24.73879 | 58.03823 | 32830 ft | 488 kts | 116° |
| 2026-04-23 16:51 | 24.70944 | 58.10536 | 32840 ft | 486 kts | 116° |
| 2026-04-23 16:51 | 24.68026 | 58.17237 | 32845 ft | 485 kts | 116° |
| 2026-04-23 16:52 | 24.65093 | 58.23911 | 32842 ft | 483 kts | 116° |
| 2026-04-23 16:52 | 24.62165 | 58.30547 | 32841 ft | 482 kts | 116° |
| 2026-04-23 16:53 | 24.59248 | 58.37177 | 32835 ft | 482 kts | 116° |
| 2026-04-23 16:53 | 24.56334 | 58.43801 | 32842 ft | 482 kts | 116° |
| 2026-04-23 16:54 | 24.53429 | 58.50381 | 32834 ft | 482 kts | 116° |
| 2026-04-23 16:54 | 24.50502 | 58.56997 | 32843 ft | 482 kts | 116° |
| 2026-04-23 16:55 | 24.47571 | 58.63612 | 32828 ft | 481 kts | 116° |
| 2026-04-23 16:55 | 24.44636 | 58.70226 | 32831 ft | 482 kts | 116° |
| 2026-04-23 16:56 | 24.41701 | 58.76833 | 32834 ft | 481 kts | 116° |
| 2026-04-23 16:56 | 24.38772 | 58.83430 | 32832 ft | 481 kts | 116° |
| 2026-04-23 16:57 | 24.35832 | 58.90025 | 32834 ft | 481 kts | 116° |
| 2026-04-23 16:57 | 24.32895 | 58.96622 | 32836 ft | 481 kts | 116° |
| 2026-04-23 16:58 | 24.29962 | 59.03218 | 32828 ft | 482 kts | 116° |
| 2026-04-23 16:58 | 24.27010 | 59.09814 | 32829 ft | 482 kts | 116° |
| 2026-04-23 16:59 | 24.24052 | 59.16409 | 32831 ft | 482 kts | 116° |
| 2026-04-23 16:59 | 24.21097 | 59.23006 | 32833 ft | 482 kts | 116° |
| 2026-04-23 17:00 | 24.18141 | 59.29600 | 32831 ft | 482 kts | 116° |
| 2026-04-23 17:00 | 24.15182 | 59.36188 | 32851 ft | 482 kts | 116° |
| 2026-04-23 17:01 | 24.12246 | 59.42718 | 32865 ft | 481 kts | 116° |
| 2026-04-23 17:01 | 24.09286 | 59.49284 | 32845 ft | 481 kts | 116° |
| 2026-04-23 17:02 | 24.06318 | 59.55844 | 32842 ft | 482 kts | 116° |
| 2026-04-23 17:02 | 24.03345 | 59.62420 | 32849 ft | 482 kts | 116° |
| 2026-04-23 17:03 | 24.00373 | 59.68991 | 32863 ft | 481 kts | 116° |
| 2026-04-23 17:03 | 23.97396 | 59.75546 | 32866 ft | 481 kts | 116° |
| 2026-04-23 17:04 | 23.94422 | 59.82086 | 32868 ft | 480 kts | 116° |
| 2026-04-23 17:04 | 23.91453 | 59.88632 | 32850 ft | 480 kts | 116° |
| 2026-04-23 17:05 | 23.88479 | 59.95168 | 32860 ft | 480 kts | 116° |
| 2026-04-23 17:05 | 23.85525 | 60.01652 | 32863 ft | 479 kts | 116° |
| 2026-04-23 17:06 | 23.82555 | 60.08165 | 32863 ft | 479 kts | 116° |
| 2026-04-23 17:06 | 23.79587 | 60.14677 | 32865 ft | 478 kts | 116° |
| 2026-04-23 17:07 | 23.76613 | 60.21177 | 32859 ft | 478 kts | 116° |
| 2026-04-23 17:07 | 23.73632 | 60.27658 | 32848 ft | 478 kts | 116° |
| 2026-04-23 17:08 | 23.70648 | 60.34141 | 32852 ft | 478 kts | 116° |
| 2026-04-23 17:08 | 23.67666 | 60.40627 | 32854 ft | 478 kts | 116° |
| 2026-04-23 17:09 | 23.64687 | 60.47108 | 32855 ft | 478 kts | 116° |
| 2026-04-23 17:09 | 23.61701 | 60.53591 | 32862 ft | 478 kts | 116° |
| 2026-04-23 17:10 | 23.58737 | 60.60021 | 32865 ft | 478 kts | 116° |
| 2026-04-23 17:10 | 23.55750 | 60.66499 | 32867 ft | 478 kts | 116° |
| 2026-04-23 17:11 | 23.52751 | 60.72968 | 32863 ft | 478 kts | 116° |
| 2026-04-23 17:11 | 23.49757 | 60.79440 | 32871 ft | 478 kts | 116° |
| 2026-04-23 17:12 | 23.46768 | 60.85903 | 32875 ft | 477 kts | 116° |
| 2026-04-23 17:12 | 23.43769 | 60.92349 | 32867 ft | 477 kts | 116° |
| 2026-04-23 17:13 | 23.40765 | 60.98790 | 32871 ft | 477 kts | 116° |
| 2026-04-23 17:13 | 23.37763 | 61.05223 | 32870 ft | 476 kts | 116° |
| 2026-04-23 17:14 | 23.34776 | 61.11647 | 32869 ft | 475 kts | 116° |
| 2026-04-23 17:14 | 23.32104 | 61.18199 | 32870 ft | 473 kts | 105° |
| 2026-04-23 17:15 | 23.31067 | 61.25218 | 32864 ft | 470 kts | 94° |
| 2026-04-23 17:15 | 23.30437 | 61.32255 | 32860 ft | 471 kts | 94° |
| 2026-04-23 17:16 | 23.29799 | 61.39339 | 32878 ft | 471 kts | 94° |
| 2026-04-23 17:16 | 23.29166 | 61.46442 | 32989 ft | 472 kts | 94° |
| 2026-04-23 17:17 | 23.28850 | 61.49995 | 33259 ft | 472 kts | 94° |
| 2026-04-23 17:17 | 23.28531 | 61.53596 | 33538 ft | 471 kts | 94° |
| 2026-04-23 17:17 | 23.28323 | 61.55937 | 33721 ft | 470 kts | 94° |
| 2026-04-23 17:17 | 23.27903 | 61.60623 | 34045 ft | 469 kts | 94° |
| 2026-04-23 17:18 | 23.27264 | 61.67690 | 34406 ft | 470 kts | 94° |
| 2026-04-23 17:18 | 23.26940 | 61.71227 | 34568 ft | 471 kts | 94° |
| 2026-04-23 17:18 | 23.26611 | 61.74776 | 34729 ft | 472 kts | 94° |
| 2026-04-23 17:19 | 23.26282 | 61.78331 | 34851 ft | 473 kts | 94° |
| 2026-04-23 17:19 | 23.25633 | 61.85462 | 34873 ft | 474 kts | 94° |
| 2026-04-23 17:20 | 23.24980 | 61.92595 | 34876 ft | 474 kts | 94° |
| 2026-04-23 17:21 | 23.23654 | 62.06843 | 34874 ft | 473 kts | 94° |
| 2026-04-23 17:21 | 23.22646 | 62.17519 | 34875 ft | 473 kts | 94° |
| 2026-04-23 17:22 | 23.21646 | 62.28187 | 34870 ft | 473 kts | 94° |
| 2026-04-23 17:23 | 23.20634 | 62.38852 | 34867 ft | 473 kts | 94° |
| 2026-04-23 17:24 | 23.19734 | 62.48320 | 34877 ft | 473 kts | 94° |
| 2026-04-23 17:24 | 23.18590 | 62.60139 | 34889 ft | 473 kts | 94° |
| 2026-04-23 17:25 | 23.17659 | 62.69634 | 34887 ft | 472 kts | 94° |
| 2026-04-23 17:26 | 23.16287 | 62.83759 | 34886 ft | 471 kts | 94° |
| 2026-04-23 17:27 | 23.15240 | 62.94367 | 34884 ft | 470 kts | 94° |
| 2026-04-23 17:27 | 23.14542 | 63.01424 | 34882 ft | 469 kts | 94° |
| 2026-04-23 17:28 | 23.13845 | 63.08472 | 34873 ft | 469 kts | 94° |
| 2026-04-23 17:28 | 23.13140 | 63.15513 | 34880 ft | 469 kts | 93° |
| 2026-04-23 17:29 | 23.12424 | 63.22546 | 34876 ft | 468 kts | 93° |
| 2026-04-23 17:30 | 23.11355 | 63.33088 | 34874 ft | 468 kts | 93° |
| 2026-04-23 17:30 | 23.10283 | 63.43626 | 34873 ft | 468 kts | 93° |
| 2026-04-23 17:31 | 23.09560 | 63.50646 | 34885 ft | 467 kts | 94° |
| 2026-04-23 17:31 | 23.08838 | 63.57659 | 34886 ft | 467 kts | 94° |
| 2026-04-23 17:32 | 23.08107 | 63.64672 | 34876 ft | 467 kts | 94° |
| 2026-04-23 17:32 | 23.07378 | 63.71678 | 34883 ft | 467 kts | 94° |
| 2026-04-23 17:33 | 23.06657 | 63.78683 | 34903 ft | 466 kts | 94° |
| 2026-04-23 17:33 | 23.05843 | 63.85666 | 34894 ft | 467 kts | 101° |
| 2026-04-23 17:34 | 23.03715 | 63.92290 | 34887 ft | 469 kts | 110° |
| 2026-04-23 17:35 | 22.99994 | 64.02119 | 34891 ft | 469 kts | 110° |
| 2026-04-23 17:35 | 22.96300 | 64.11945 | 34898 ft | 468 kts | 110° |
| 2026-04-23 17:36 | 22.93837 | 64.18478 | 34895 ft | 467 kts | 110° |
| 2026-04-23 17:36 | 22.91372 | 64.25002 | 34899 ft | 467 kts | 110° |
| 2026-04-23 17:37 | 22.88920 | 64.31478 | 34899 ft | 467 kts | 110° |
| 2026-04-23 17:38 | 22.85210 | 64.41236 | 34903 ft | 466 kts | 111° |
| 2026-04-23 17:38 | 22.82736 | 64.47724 | 34894 ft | 466 kts | 110° |
| 2026-04-23 17:39 | 22.80257 | 64.54211 | 34896 ft | 465 kts | 110° |
| 2026-04-23 17:39 | 22.77787 | 64.60692 | 34895 ft | 465 kts | 110° |
| 2026-04-23 17:40 | 22.75317 | 64.67168 | 34897 ft | 465 kts | 110° |
| 2026-04-23 17:40 | 22.72839 | 64.73645 | 34895 ft | 465 kts | 110° |
| 2026-04-23 17:41 | 22.70355 | 64.80118 | 34897 ft | 465 kts | 110° |
| 2026-04-23 17:41 | 22.66632 | 64.89827 | 34901 ft | 465 kts | 111° |
| 2026-04-23 17:42 | 22.62905 | 64.99530 | 34900 ft | 465 kts | 110° |
| 2026-04-23 17:43 | 22.60417 | 65.05993 | 34894 ft | 465 kts | 110° |
| 2026-04-23 17:43 | 22.57940 | 65.12415 | 34891 ft | 465 kts | 110° |
| 2026-04-23 17:44 | 22.55436 | 65.18876 | 34898 ft | 465 kts | 110° |
| 2026-04-23 17:44 | 22.51678 | 65.28560 | 34901 ft | 465 kts | 110° |
| 2026-04-23 17:45 | 22.47932 | 65.38242 | 34911 ft | 465 kts | 110° |
| 2026-04-23 17:46 | 22.44176 | 65.47908 | 34907 ft | 465 kts | 111° |
| 2026-04-23 17:46 | 22.41664 | 65.54347 | 34897 ft | 465 kts | 110° |
| 2026-04-23 17:47 | 22.39146 | 65.60781 | 34895 ft | 465 kts | 110° |
| 2026-04-23 17:48 | 22.35404 | 65.70393 | 34913 ft | 465 kts | 110° |
| 2026-04-23 17:48 | 22.32894 | 65.76826 | 34907 ft | 464 kts | 110° |
| 2026-04-23 17:49 | 22.30372 | 65.83249 | 34905 ft | 464 kts | 110° |
| 2026-04-23 17:49 | 22.27855 | 65.89670 | 34903 ft | 464 kts | 110° |
| 2026-04-23 17:50 | 22.25333 | 65.96092 | 34910 ft | 464 kts | 110° |
| 2026-04-23 17:50 | 22.21540 | 66.05719 | 34912 ft | 464 kts | 110° |
| 2026-04-23 17:51 | 22.19010 | 66.12132 | 34907 ft | 464 kts | 110° |
| 2026-04-23 17:52 | 22.15218 | 66.21758 | 34907 ft | 465 kts | 110° |
| 2026-04-23 17:52 | 22.11421 | 66.31343 | 34911 ft | 465 kts | 111° |
| 2026-04-23 17:53 | 22.07606 | 66.40966 | 34908 ft | 465 kts | 111° |
| 2026-04-23 17:54 | 22.05052 | 66.47384 | 34909 ft | 465 kts | 111° |
| 2026-04-23 17:54 | 22.01229 | 66.57008 | 34909 ft | 466 kts | 111° |
| 2026-04-23 17:55 | 21.97394 | 66.66631 | 34910 ft | 466 kts | 111° |
| 2026-04-23 17:56 | 21.94841 | 66.73044 | 34910 ft | 466 kts | 112° |
| 2026-04-23 17:56 | 21.91015 | 66.82615 | 34909 ft | 466 kts | 111° |
| 2026-04-23 17:57 | 21.88448 | 66.89019 | 34910 ft | 466 kts | 111° |
| 2026-04-23 17:58 | 21.84592 | 66.98624 | 34915 ft | 466 kts | 112° |
| 2026-04-23 17:58 | 21.82019 | 67.05032 | 34910 ft | 466 kts | 112° |
| 2026-04-23 17:59 | 21.79451 | 67.11437 | 34908 ft | 466 kts | 112° |
| 2026-04-23 17:59 | 21.76868 | 67.17840 | 34904 ft | 466 kts | 112° |
| 2026-04-23 18:00 | 21.74285 | 67.24242 | 34907 ft | 466 kts | 112° |
| 2026-04-23 18:00 | 21.71701 | 67.30647 | 34907 ft | 467 kts | 112° |
| 2026-04-23 18:01 | 21.69111 | 67.37050 | 34908 ft | 467 kts | 112° |
| 2026-04-23 18:01 | 21.66530 | 67.43405 | 34906 ft | 467 kts | 112° |
| 2026-04-23 18:02 | 21.64358 | 67.48763 | 34907 ft | 467 kts | 112° |
| 2026-04-23 18:02 | 21.61340 | 67.56205 | 34910 ft | 467 kts | 112° |
| 2026-04-23 18:03 | 21.58740 | 67.62597 | 34904 ft | 467 kts | 112° |
| 2026-04-23 18:03 | 21.56146 | 67.68994 | 34905 ft | 467 kts | 112° |
| 2026-04-23 18:04 | 21.53533 | 67.75393 | 34900 ft | 467 kts | 112° |
| 2026-04-23 18:04 | 21.50932 | 67.81787 | 34904 ft | 467 kts | 112° |
| 2026-04-23 18:05 | 21.48319 | 67.88177 | 34907 ft | 467 kts | 112° |
| 2026-04-23 18:05 | 21.45697 | 67.94564 | 34903 ft | 468 kts | 112° |
| 2026-04-23 18:06 | 21.43072 | 68.00952 | 34903 ft | 467 kts | 112° |
| 2026-04-23 18:06 | 21.40455 | 68.07342 | 34902 ft | 467 kts | 112° |
| 2026-04-23 18:07 | 21.37842 | 68.13728 | 34903 ft | 467 kts | 112° |
| 2026-04-23 18:07 | 21.35230 | 68.20066 | 34910 ft | 467 kts | 113° |
| 2026-04-23 18:08 | 21.33026 | 68.25413 | 34903 ft | 468 kts | 113° |
| 2026-04-23 18:08 | 21.29968 | 68.32831 | 34897 ft | 468 kts | 113° |
| 2026-04-23 18:09 | 21.27342 | 68.39213 | 34903 ft | 468 kts | 113° |
| 2026-04-23 18:09 | 21.24708 | 68.45596 | 34901 ft | 468 kts | 113° |
| 2026-04-23 18:10 | 21.22073 | 68.51978 | 34902 ft | 468 kts | 113° |
| 2026-04-23 18:10 | 21.19432 | 68.58357 | 34894 ft | 468 kts | 113° |
| 2026-04-23 18:11 | 21.16779 | 68.64739 | 34886 ft | 469 kts | 114° |
| 2026-04-23 18:11 | 21.14124 | 68.71121 | 34895 ft | 469 kts | 114° |
| 2026-04-23 18:12 | 21.11483 | 68.77464 | 34897 ft | 469 kts | 114° |
| 2026-04-23 18:12 | 21.08825 | 68.83840 | 34900 ft | 469 kts | 114° |
| 2026-04-23 18:13 | 21.06174 | 68.90214 | 34889 ft | 469 kts | 114° |
| 2026-04-23 18:13 | 21.03511 | 68.96590 | 34887 ft | 469 kts | 114° |
| 2026-04-23 18:14 | 21.01279 | 69.01934 | 34894 ft | 469 kts | 114° |
| 2026-04-23 18:14 | 20.98636 | 69.08262 | 34894 ft | 469 kts | 114° |
| 2026-04-23 18:15 | 20.96339 | 69.14776 | 34897 ft | 468 kts | 108° |
| 2026-04-23 18:15 | 20.94346 | 69.21420 | 34896 ft | 469 kts | 108° |
| 2026-04-23 18:16 | 20.92342 | 69.28057 | 34885 ft | 469 kts | 108° |
| 2026-04-23 18:16 | 20.90336 | 69.34682 | 34886 ft | 469 kts | 108° |
| 2026-04-23 18:17 | 20.87323 | 69.44629 | 34888 ft | 469 kts | 108° |
| 2026-04-23 18:17 | 20.85308 | 69.51257 | 34888 ft | 468 kts | 108° |
| 2026-04-23 18:18 | 20.83298 | 69.57883 | 34884 ft | 469 kts | 108° |
| 2026-04-23 18:18 | 20.81281 | 69.64499 | 34886 ft | 468 kts | 108° |
| 2026-04-23 18:19 | 20.79271 | 69.71079 | 34886 ft | 468 kts | 108° |
| 2026-04-23 18:19 | 20.77254 | 69.77703 | 34882 ft | 468 kts | 108° |
| 2026-04-23 18:20 | 20.75236 | 69.84316 | 34883 ft | 468 kts | 108° |
| 2026-04-23 18:20 | 20.73212 | 69.90924 | 34885 ft | 468 kts | 108° |
| 2026-04-23 18:21 | 20.71181 | 69.97538 | 34870 ft | 468 kts | 108° |
| 2026-04-23 18:21 | 20.69151 | 70.04145 | 34873 ft | 468 kts | 109° |
| 2026-04-23 18:22 | 20.67120 | 70.10758 | 34880 ft | 469 kts | 108° |
| 2026-04-23 18:22 | 20.65085 | 70.17370 | 34878 ft | 469 kts | 108° |
| 2026-04-23 18:23 | 20.62044 | 70.27236 | 34874 ft | 468 kts | 109° |
| 2026-04-23 18:24 | 20.58983 | 70.37138 | 34867 ft | 469 kts | 109° |
| 2026-04-23 18:25 | 20.55912 | 70.47056 | 34865 ft | 469 kts | 109° |
| 2026-04-23 18:25 | 20.53855 | 70.53661 | 34858 ft | 469 kts | 109° |
| 2026-04-23 18:26 | 20.51794 | 70.60258 | 34874 ft | 468 kts | 109° |
| 2026-04-23 18:26 | 20.49744 | 70.66850 | 34872 ft | 468 kts | 109° |
| 2026-04-23 18:27 | 20.47688 | 70.73437 | 34866 ft | 468 kts | 109° |
| 2026-04-23 18:27 | 20.45624 | 70.80017 | 34868 ft | 467 kts | 109° |
| 2026-04-23 18:28 | 20.43564 | 70.86596 | 34866 ft | 467 kts | 109° |
| 2026-04-23 18:28 | 20.41523 | 70.93120 | 34865 ft | 467 kts | 109° |
| 2026-04-23 18:29 | 20.39474 | 70.99685 | 34856 ft | 466 kts | 110° |
| 2026-04-23 18:29 | 20.37418 | 71.06244 | 34861 ft | 467 kts | 110° |
| 2026-04-23 18:30 | 20.35348 | 71.12810 | 34850 ft | 468 kts | 110° |
| 2026-04-23 18:30 | 20.33272 | 71.19376 | 34848 ft | 468 kts | 110° |
| 2026-04-23 18:31 | 20.31200 | 71.25946 | 34852 ft | 468 kts | 109° |
| 2026-04-23 18:31 | 20.29133 | 71.32522 | 34845 ft | 468 kts | 110° |
| 2026-04-23 18:32 | 20.27048 | 71.39099 | 34850 ft | 468 kts | 110° |
| 2026-04-23 18:32 | 20.24957 | 71.45677 | 34855 ft | 469 kts | 110° |
| 2026-04-23 18:33 | 20.22868 | 71.52254 | 34858 ft | 468 kts | 110° |
| 2026-04-23 18:33 | 20.19934 | 71.58382 | 34850 ft | 464 kts | 128° |
| 2026-04-23 18:34 | 20.15691 | 71.63511 | 34575 ft | 461 kts | 134° |
| 2026-04-23 18:34 | 20.13508 | 71.66019 | 34343 ft | 461 kts | 134° |
| 2026-04-23 18:34 | 20.11360 | 71.68487 | 34120 ft | 461 kts | 134° |
| 2026-04-23 18:34 | 20.09186 | 71.70985 | 33894 ft | 460 kts | 134° |
| 2026-04-23 18:35 | 20.07011 | 71.73490 | 33641 ft | 460 kts | 134° |
| 2026-04-23 18:35 | 20.04840 | 71.75990 | 33379 ft | 460 kts | 134° |
| 2026-04-23 18:35 | 20.02664 | 71.78491 | 32774 ft | 463 kts | 133° |
| 2026-04-23 18:35 | 20.00457 | 71.81026 | 31785 ft | 470 kts | 132° |
| 2026-04-23 18:36 | 19.98224 | 71.83594 | 30911 ft | 474 kts | 131° |
| 2026-04-23 18:36 | 19.95973 | 71.86185 | 29906 ft | 481 kts | 131° |
| 2026-04-23 18:36 | 19.93684 | 71.88814 | 28756 ft | 487 kts | 131° |
| 2026-04-23 18:36 | 19.91382 | 71.91459 | 27884 ft | 487 kts | 131° |
| 2026-04-23 18:37 | 19.89100 | 71.94075 | 27313 ft | 480 kts | 131° |
| 2026-04-23 18:37 | 19.86836 | 71.96665 | 26642 ft | 476 kts | 131° |
| 2026-04-23 18:37 | 19.84609 | 71.99208 | 26433 ft | 462 kts | 131° |
| 2026-04-23 18:37 | 19.82457 | 72.01672 | 26311 ft | 447 kts | 131° |
| 2026-04-23 18:38 | 19.80376 | 72.04049 | 26188 ft | 432 kts | 131° |
| 2026-04-23 18:38 | 19.78362 | 72.06344 | 26067 ft | 418 kts | 131° |
| 2026-04-23 18:38 | 19.76337 | 72.08495 | 25945 ft | 406 kts | 136° |
| 2026-04-23 18:38 | 19.74266 | 72.10460 | 25807 ft | 393 kts | 136° |
| 2026-04-23 18:39 | 19.72245 | 72.12384 | 25493 ft | 387 kts | 136° |
| 2026-04-23 18:39 | 19.70258 | 72.14283 | 25103 ft | 383 kts | 136° |
| 2026-04-23 18:39 | 19.68284 | 72.16172 | 24679 ft | 381 kts | 136° |
| 2026-04-23 18:39 | 19.66321 | 72.18045 | 24276 ft | 378 kts | 136° |
| 2026-04-23 18:40 | 19.64371 | 72.19903 | 23879 ft | 375 kts | 136° |
| 2026-04-23 18:40 | 19.62432 | 72.21747 | 23488 ft | 373 kts | 136° |
| 2026-04-23 18:40 | 19.60502 | 72.23578 | 23033 ft | 371 kts | 136° |
| 2026-04-23 18:40 | 19.58586 | 72.25394 | 22582 ft | 368 kts | 136° |
| 2026-04-23 18:41 | 19.56710 | 72.27172 | 22163 ft | 365 kts | 136° |
| 2026-04-23 18:41 | 19.54822 | 72.28965 | 21706 ft | 363 kts | 136° |
| 2026-04-23 18:41 | 19.52947 | 72.30742 | 21290 ft | 361 kts | 137° |
| 2026-04-23 18:41 | 19.51082 | 72.32508 | 20882 ft | 358 kts | 136° |
| 2026-04-23 18:42 | 19.49233 | 72.34255 | 20480 ft | 355 kts | 136° |
| 2026-04-23 18:42 | 19.47397 | 72.35988 | 20092 ft | 352 kts | 136° |
| 2026-04-23 18:42 | 19.45578 | 72.37708 | 19705 ft | 349 kts | 136° |
| 2026-04-23 18:42 | 19.43773 | 72.39419 | 19308 ft | 347 kts | 137° |
| 2026-04-23 18:43 | 19.41987 | 72.41113 | 18940 ft | 344 kts | 137° |
| 2026-04-23 18:43 | 19.40206 | 72.42800 | 18568 ft | 341 kts | 137° |
| 2026-04-23 18:43 | 19.38442 | 72.44472 | 18199 ft | 339 kts | 137° |
| 2026-04-23 18:43 | 19.36691 | 72.46129 | 17800 ft | 337 kts | 137° |
| 2026-04-23 18:44 | 19.34951 | 72.47771 | 17414 ft | 333 kts | 137° |
| 2026-04-23 18:44 | 19.33229 | 72.49395 | 17045 ft | 330 kts | 137° |
| 2026-04-23 18:44 | 19.31518 | 72.51007 | 16622 ft | 329 kts | 137° |
| 2026-04-23 18:44 | 19.29817 | 72.52610 | 16252 ft | 326 kts | 137° |
| 2026-04-23 18:45 | 19.28123 | 72.54205 | 15841 ft | 325 kts | 137° |
| 2026-04-23 18:45 | 19.26440 | 72.55794 | 15477 ft | 323 kts | 137° |
| 2026-04-23 18:45 | 19.24775 | 72.57370 | 15188 ft | 318 kts | 138° |
| 2026-04-23 18:45 | 19.23181 | 72.58929 | 15072 ft | 306 kts | 131° |
| 2026-04-23 18:46 | 19.22054 | 72.60777 | 14954 ft | 295 kts | 112° |
| 2026-04-23 18:46 | 19.21582 | 72.62852 | 14775 ft | 288 kts | 94° |
| 2026-04-23 18:46 | 19.21556 | 72.64967 | 14452 ft | 287 kts | 91° |
| 2026-04-23 18:46 | 19.21550 | 72.67042 | 14139 ft | 285 kts | 91° |
| 2026-04-23 18:47 | 19.21543 | 72.69131 | 13830 ft | 283 kts | 91° |
| 2026-04-23 18:47 | 19.21534 | 72.71212 | 13491 ft | 282 kts | 91° |
| 2026-04-23 18:47 | 19.21524 | 72.73284 | 13141 ft | 281 kts | 92° |
| 2026-04-23 18:47 | 19.21510 | 72.75345 | 12786 ft | 279 kts | 92° |
| 2026-04-23 18:48 | 19.21495 | 72.77395 | 12445 ft | 278 kts | 92° |
| 2026-04-23 18:48 | 19.21481 | 72.79438 | 12083 ft | 277 kts | 91° |
| 2026-04-23 18:48 | 19.21468 | 72.81472 | 11739 ft | 276 kts | 92° |
| 2026-04-23 18:48 | 19.21456 | 72.83498 | 11401 ft | 275 kts | 92° |
| 2026-04-23 18:49 | 19.21446 | 72.85518 | 11052 ft | 274 kts | 91° |
| 2026-04-23 18:49 | 19.21436 | 72.87524 | 10840 ft | 272 kts | 92° |
| 2026-04-23 18:49 | 19.21424 | 72.89532 | 10839 ft | 274 kts | 92° |
| 2026-04-23 18:49 | 19.21410 | 72.91546 | 10835 ft | 274 kts | 92° |
| 2026-04-23 18:50 | 19.21400 | 72.92881 | 10835 ft | 274 kts | 92° |
| 2026-04-23 18:50 | 19.21378 | 72.95582 | 10836 ft | 274 kts | 91° |
| 2026-04-23 18:50 | 19.21360 | 72.97600 | 10711 ft | 273 kts | 91° |
| 2026-04-23 18:50 | 19.21344 | 72.99605 | 10360 ft | 272 kts | 91° |
| 2026-04-23 18:51 | 19.21328 | 73.01604 | 10015 ft | 271 kts | 91° |
| 2026-04-23 18:51 | 19.21313 | 73.03595 | 9673 ft | 270 kts | 91° |
| 2026-04-23 18:51 | 19.21298 | 73.05552 | 9317 ft | 269 kts | 91° |
| 2026-04-23 18:51 | 19.21283 | 73.07528 | 8952 ft | 268 kts | 91° |
| 2026-04-23 18:52 | 19.21266 | 73.09494 | 8598 ft | 267 kts | 91° |
| 2026-04-23 18:52 | 19.21250 | 73.11449 | 8248 ft | 265 kts | 90° |
| 2026-04-23 18:52 | 19.21234 | 73.13396 | 7898 ft | 264 kts | 90° |
| 2026-04-23 18:52 | 19.21222 | 73.15331 | 7557 ft | 263 kts | 90° |
| 2026-04-23 18:53 | 19.21235 | 73.17256 | 7284 ft | 258 kts | 89° |
| 2026-04-23 18:53 | 19.21256 | 73.19094 | 7200 ft | 243 kts | 89° |
| 2026-04-23 18:53 | 19.21278 | 73.20837 | 7020 ft | 231 kts | 89° |
| 2026-04-23 18:53 | 19.21042 | 73.22483 | 6577 ft | 228 kts | 113° |
| 2026-04-23 18:54 | 19.20032 | 73.23744 | 6078 ft | 228 kts | 146° |
| 2026-04-23 18:54 | 19.18525 | 73.24216 | 5545 ft | 229 kts | 180° |
| 2026-04-23 18:54 | 19.17019 | 73.23743 | 5027 ft | 228 kts | 212° |
| 2026-04-23 18:54 | 19.15850 | 73.22630 | 4707 ft | 228 kts | 235° |
| 2026-04-23 18:55 | 19.15002 | 73.21213 | 4424 ft | 228 kts | 245° |
| 2026-04-23 18:55 | 19.14363 | 73.19684 | 4127 ft | 227 kts | 249° |
| 2026-04-23 18:55 | 19.13736 | 73.18151 | 3851 ft | 227 kts | 249° |
| 2026-04-23 18:55 | 19.13113 | 73.16618 | 3579 ft | 227 kts | 249° |
| 2026-04-23 18:56 | 19.12701 | 73.15602 | 3378 ft | 225 kts | 250° |
| 2026-04-23 18:56 | 19.11908 | 73.13657 | 3046 ft | 213 kts | 250° |
| 2026-04-23 18:56 | 19.11318 | 73.12211 | 2993 ft | 212 kts | 250° |
| 2026-04-23 18:56 | 19.10737 | 73.10781 | 3000 ft | 212 kts | 251° |
| 2026-04-23 18:57 | 19.10158 | 73.09348 | 2999 ft | 212 kts | 251° |
| 2026-04-23 18:57 | 19.09579 | 73.07914 | 2999 ft | 212 kts | 251° |
| 2026-04-23 18:57 | 19.09185 | 73.06433 | 3000 ft | 208 kts | 268° |
| 2026-04-23 18:57 | 19.09111 | 73.04911 | 2972 ft | 207 kts | 273° |
| 2026-04-23 18:58 | 19.09090 | 73.03390 | 2784 ft | 206 kts | 274° |
| 2026-04-23 18:58 | 19.09072 | 73.01878 | 2550 ft | 205 kts | 274° |
| 2026-04-23 18:58 | 19.09053 | 73.00391 | 2292 ft | 198 kts | 274° |
| 2026-04-23 18:58 | 19.09032 | 72.98999 | 2063 ft | 181 kts | 274° |
| 2026-04-23 18:59 | 19.09015 | 72.97717 | 1829 ft | 166 kts | 274° |
| 2026-04-23 18:59 | 19.09000 | 72.96530 | 1636 ft | 158 kts | 274° |
| 2026-04-23 18:59 | 19.08986 | 72.95380 | 1431 ft | 155 kts | 273° |
| 2026-04-23 18:59 | 19.08971 | 72.94246 | 1235 ft | 154 kts | 274° |
| 2026-04-23 19:00 | 19.08956 | 72.93110 | 1043 ft | 154 kts | 275° |
| 2026-04-23 19:00 | 19.08941 | 72.91989 | 855 ft | 150 kts | 272° |
| 2026-04-23 19:00 | 19.08926 | 72.90892 | 674 ft | 148 kts | 273° |
| 2026-04-23 19:00 | 19.08912 | 72.89813 | 486 ft | 145 kts | 271° |
| 2026-04-23 19:01 | 19.08898 | 72.88761 | 295 ft | 143 kts | 272° |
| 2026-04-23 19:01 | 19.08884 | 72.87686 | 132 ft | 159 kts | 272° |
| 2026-04-23 19:01 | 19.08894 | 72.86380 | 417 ft | 195 kts | 272° |
| 2026-04-23 19:01 | 19.08932 | 72.84865 | 983 ft | 216 kts | 274° |
| 2026-04-23 19:02 | 19.08969 | 72.83755 | 1156 ft | 243 kts | 275° |
| 2026-04-23 19:02 | 19.09045 | 72.81312 | 2058 ft | 249 kts | 274° |
| 2026-04-23 19:02 | 19.09014 | 72.79467 | 2628 ft | 252 kts | 272° |
| 2026-04-23 19:02 | 19.09024 | 72.77635 | 2917 ft | 251 kts | 280° |
| 2026-04-23 19:03 | 19.09622 | 72.75935 | 2991 ft | 242 kts | 310° |
| 2026-04-23 19:03 | 19.10891 | 72.74861 | 3004 ft | 237 kts | 340° |
| 2026-04-23 19:03 | 19.12504 | 72.74651 | 3007 ft | 236 kts | 9° |
| 2026-04-23 19:03 | 19.14086 | 72.75112 | 3001 ft | 237 kts | 27° |
| 2026-04-23 19:04 | 19.15306 | 72.76261 | 3003 ft | 240 kts | 54° |
| 2026-04-23 19:04 | 19.16165 | 72.77795 | 3007 ft | 243 kts | 59° |
| 2026-04-23 19:04 | 19.16703 | 72.78857 | 3005 ft | 242 kts | 59° |
| 2026-04-23 19:04 | 19.17739 | 72.80952 | 3006 ft | 243 kts | 60° |
| 2026-04-23 19:05 | 19.18256 | 72.82004 | 3006 ft | 243 kts | 59° |
| 2026-04-23 19:05 | 19.19040 | 72.83593 | 3006 ft | 244 kts | 60° |
| 2026-04-23 19:05 | 19.19820 | 72.85185 | 3005 ft | 243 kts | 60° |
| 2026-04-23 19:05 | 19.20596 | 72.86774 | 3005 ft | 244 kts | 60° |
| 2026-04-23 19:06 | 19.21375 | 72.88365 | 3007 ft | 243 kts | 60° |
| 2026-04-23 19:06 | 19.22149 | 72.89951 | 3004 ft | 243 kts | 60° |
| 2026-04-23 19:06 | 19.22923 | 72.91542 | 3004 ft | 243 kts | 60° |
| 2026-04-23 19:06 | 19.23691 | 72.93135 | 3002 ft | 242 kts | 60° |
| 2026-04-23 19:07 | 19.24453 | 72.94730 | 2998 ft | 244 kts | 60° |
| 2026-04-23 19:07 | 19.25225 | 72.96326 | 3008 ft | 244 kts | 60° |
| 2026-04-23 19:07 | 19.25992 | 72.97921 | 3005 ft | 242 kts | 60° |
| 2026-04-23 19:07 | 19.26754 | 72.99511 | 3002 ft | 243 kts | 60° |
| 2026-04-23 19:08 | 19.27258 | 73.01220 | 2996 ft | 247 kts | 83° |
| 2026-04-23 19:08 | 19.26980 | 73.03022 | 3000 ft | 254 kts | 112° |
| 2026-04-23 19:08 | 19.25896 | 73.04510 | 3001 ft | 261 kts | 142° |
| 2026-04-23 19:08 | 19.24207 | 73.05273 | 3007 ft | 277 kts | 173° |
| 2026-04-23 19:09 | 19.22293 | 73.05011 | 3001 ft | 282 kts | 206° |
| 2026-04-23 19:09 | 19.20773 | 73.03748 | 3005 ft | 279 kts | 234° |
| 2026-04-23 19:09 | 19.19579 | 73.02121 | 3000 ft | 280 kts | 235° |
| 2026-04-23 19:09 | 19.18380 | 73.00492 | 3001 ft | 281 kts | 235° |
| 2026-04-23 19:10 | 19.17441 | 72.98711 | 3004 ft | 276 kts | 256° |
| 2026-04-23 19:10 | 19.17245 | 72.96713 | 3325 ft | 273 kts | 280° |
| 2026-04-23 19:10 | 19.17776 | 72.94812 | 3983 ft | 270 kts | 301° |
| 2026-04-23 19:10 | 19.18747 | 72.93101 | 4584 ft | 274 kts | 304° |
| 2026-04-23 19:11 | 19.19761 | 72.91381 | 5169 ft | 277 kts | 303° |
| 2026-04-23 19:11 | 19.20781 | 72.89665 | 5771 ft | 280 kts | 303° |
| 2026-04-23 19:11 | 19.21828 | 72.87909 | 6388 ft | 283 kts | 302° |
| 2026-04-23 19:11 | 19.22885 | 72.86137 | 6989 ft | 286 kts | 302° |
| 2026-04-23 19:12 | 19.23949 | 72.84347 | 7585 ft | 289 kts | 302° |
| 2026-04-23 19:12 | 19.25024 | 72.82533 | 8185 ft | 293 kts | 301° |
| 2026-04-23 19:12 | 19.26111 | 72.80696 | 8768 ft | 296 kts | 301° |
| 2026-04-23 19:12 | 19.27209 | 72.78834 | 9388 ft | 299 kts | 301° |
| 2026-04-23 19:13 | 19.28370 | 72.76983 | 9913 ft | 307 kts | 308° |
| 2026-04-23 19:13 | 19.30018 | 72.75445 | 10038 ft | 328 kts | 329° |
| 2026-04-23 19:13 | 19.32205 | 72.74565 | 10192 ft | 346 kts | 351° |
| 2026-04-23 19:13 | 19.34604 | 72.74567 | 10772 ft | 346 kts | 7° |
| 2026-04-23 19:14 | 19.36994 | 72.74901 | 11441 ft | 347 kts | 8° |
| 2026-04-23 19:14 | 19.39397 | 72.75239 | 12042 ft | 350 kts | 8° |
| 2026-04-23 19:14 | 19.41823 | 72.75582 | 12643 ft | 353 kts | 8° |
| 2026-04-23 19:14 | 19.44267 | 72.75925 | 13282 ft | 355 kts | 8° |
| 2026-04-23 19:15 | 19.46719 | 72.76269 | 13890 ft | 357 kts | 8° |
| 2026-04-23 19:15 | 19.49195 | 72.76618 | 14424 ft | 360 kts | 9° |
| 2026-04-23 19:15 | 19.51653 | 72.76965 | 14970 ft | 363 kts | 8° |
| 2026-04-23 19:15 | 19.54162 | 72.77321 | 15532 ft | 365 kts | 8° |
| 2026-04-23 19:16 | 19.56682 | 72.77680 | 16097 ft | 367 kts | 9° |
| 2026-04-23 19:16 | 19.59218 | 72.78043 | 16648 ft | 369 kts | 9° |
| 2026-04-23 19:16 | 19.61772 | 72.78405 | 17195 ft | 371 kts | 8° |
| 2026-04-23 19:17 | 19.66919 | 72.79129 | 17810 ft | 378 kts | 8° |
| 2026-04-23 19:17 | 19.69578 | 72.79500 | 17837 ft | 393 kts | 8° |
| 2026-04-23 19:17 | 19.72310 | 72.79884 | 17836 ft | 398 kts | 8° |
| 2026-04-23 19:17 | 19.75061 | 72.80275 | 17835 ft | 399 kts | 8° |
| 2026-04-23 19:18 | 19.77817 | 72.80669 | 17843 ft | 399 kts | 8° |
| 2026-04-23 19:18 | 19.80568 | 72.81062 | 17840 ft | 399 kts | 8° |
| 2026-04-23 19:18 | 19.83323 | 72.81453 | 17841 ft | 399 kts | 8° |
| 2026-04-23 19:18 | 19.86038 | 72.81837 | 17841 ft | 399 kts | 8° |
| 2026-04-23 19:19 | 19.91544 | 72.82618 | 17846 ft | 399 kts | 8° |
| 2026-04-23 19:19 | 19.94297 | 72.83006 | 17846 ft | 399 kts | 8° |
| 2026-04-23 19:20 | 19.99803 | 72.83785 | 17848 ft | 399 kts | 8° |
| 2026-04-23 19:20 | 20.02560 | 72.84178 | 17852 ft | 399 kts | 8° |
| 2026-04-23 19:20 | 20.05306 | 72.84570 | 17855 ft | 399 kts | 8° |
| 2026-04-23 19:20 | 20.08058 | 72.84965 | 17857 ft | 399 kts | 8° |
| 2026-04-23 19:21 | 20.10808 | 72.85357 | 17859 ft | 399 kts | 8° |
| 2026-04-23 19:21 | 20.16301 | 72.86138 | 17858 ft | 398 kts | 8° |
| 2026-04-23 19:21 | 20.19049 | 72.86529 | 17858 ft | 398 kts | 8° |
| 2026-04-23 19:22 | 20.21796 | 72.86919 | 17855 ft | 398 kts | 8° |
| 2026-04-23 19:22 | 20.24543 | 72.87310 | 17855 ft | 398 kts | 8° |
| 2026-04-23 19:22 | 20.30035 | 72.88092 | 17849 ft | 398 kts | 9° |
| 2026-04-23 19:23 | 20.32782 | 72.88483 | 17853 ft | 398 kts | 9° |
| 2026-04-23 19:23 | 20.35507 | 72.88872 | 17763 ft | 390 kts | 9° |
| 2026-04-23 19:23 | 20.38187 | 72.89254 | 17216 ft | 387 kts | 9° |
| 2026-04-23 19:24 | 20.43499 | 72.90014 | 16060 ft | 385 kts | 8° |
| 2026-04-23 19:24 | 20.46147 | 72.90391 | 15519 ft | 383 kts | 8° |
| 2026-04-23 19:24 | 20.51408 | 72.91141 | 14468 ft | 380 kts | 8° |
| 2026-04-23 19:25 | 20.56596 | 72.91879 | 13479 ft | 377 kts | 8° |
| 2026-04-23 19:25 | 20.61770 | 72.92615 | 12382 ft | 374 kts | 7° |
| 2026-04-23 19:26 | 20.66906 | 72.93346 | 11327 ft | 370 kts | 7° |
| 2026-04-23 19:26 | 20.69450 | 72.93712 | 10841 ft | 367 kts | 7° |
| 2026-04-23 19:27 | 20.74366 | 72.93169 | 9962 ft | 354 kts | 330° |
| 2026-04-23 19:27 | 20.78244 | 72.87330 | 9541 ft | 310 kts | 288° |
| 2026-04-23 19:28 | 20.79634 | 72.83144 | 9216 ft | 290 kts | 288° |
| 2026-04-23 19:28 | 20.80959 | 72.79149 | 8173 ft | 284 kts | 288° |
| 2026-04-23 19:29 | 20.81615 | 72.77164 | 7785 ft | 282 kts | 288° |
| 2026-04-23 19:29 | 20.82902 | 72.73266 | 6900 ft | 278 kts | 289° |
| 2026-04-23 19:30 | 20.84179 | 72.69400 | 5888 ft | 274 kts | 289° |
| 2026-04-23 19:30 | 20.84807 | 72.67488 | 5456 ft | 269 kts | 289° |
| 2026-04-23 19:30 | 20.86045 | 72.63991 | 5249 ft | 235 kts | 301° |
| 2026-04-23 19:31 | 20.87063 | 72.62707 | 5126 ft | 220 kts | 320° |
| 2026-04-23 19:31 | 20.88320 | 72.61899 | 4933 ft | 206 kts | 333° |
| 2026-04-23 19:31 | 20.89588 | 72.61215 | 4533 ft | 202 kts | 333° |
| 2026-04-23 19:31 | 20.90835 | 72.60537 | 4113 ft | 200 kts | 332° |
| 2026-04-23 19:32 | 20.92065 | 72.59868 | 3775 ft | 197 kts | 332° |
| 2026-04-23 19:32 | 20.93288 | 72.59203 | 3571 ft | 198 kts | 332° |
| 2026-04-23 19:32 | 20.94607 | 72.58809 | 3354 ft | 199 kts | 355° |
| 2026-04-23 19:32 | 20.95969 | 72.59085 | 3175 ft | 203 kts | 21° |
| 2026-04-23 19:33 | 20.97117 | 72.59981 | 2990 ft | 207 kts | 39° |
| 2026-04-23 19:33 | 20.98165 | 72.61027 | 2854 ft | 206 kts | 38° |
| 2026-04-23 19:33 | 21.00268 | 72.63111 | 2619 ft | 206 kts | 38° |
| 2026-04-23 19:34 | 21.01315 | 72.64151 | 2476 ft | 206 kts | 38° |
| 2026-04-23 19:34 | 21.02360 | 72.65187 | 2207 ft | 201 kts | 37° |
| 2026-04-23 19:34 | 21.04244 | 72.67065 | 1727 ft | 168 kts | 38° |
| 2026-04-23 19:35 | 21.05075 | 72.67892 | 1506 ft | 161 kts | 37° |
| 2026-04-23 19:35 | 21.05886 | 72.68694 | 1296 ft | 157 kts | 38° |
| 2026-04-23 19:35 | 21.06684 | 72.69483 | 1091 ft | 155 kts | 38° |
| 2026-04-23 19:35 | 21.07470 | 72.70261 | 891 ft | 154 kts | 39° |
| 2026-04-23 19:36 | 21.08260 | 72.71040 | 695 ft | 154 kts | 40° |
| 2026-04-23 19:36 | 21.09040 | 72.71809 | 492 ft | 151 kts | 40° |
| 2026-04-23 19:36 | 21.09806 | 72.72566 | 293 ft | 148 kts | 41° |
| 2026-04-23 19:36 | 21.10587 | 72.73339 | 250 ft | 167 kts | 41° |
| 2026-04-23 19:37 | 21.11495 | 72.74233 | 607 ft | 188 kts | 41° |
| 2026-04-23 19:37 | 21.12497 | 72.75213 | 1047 ft | 201 kts | 39° |
| 2026-04-23 19:37 | 21.13560 | 72.76242 | 1537 ft | 210 kts | 38° |
| 2026-04-23 19:37 | 21.14648 | 72.77315 | 1868 ft | 218 kts | 40° |
| 2026-04-23 19:38 | 21.15459 | 72.78747 | 1966 ft | 244 kts | 71° |
| 2026-04-23 19:38 | 21.15476 | 72.80629 | 2228 ft | 264 kts | 105° |
| 2026-04-23 19:38 | 21.14589 | 72.82355 | 2748 ft | 269 kts | 134° |
| 2026-04-23 19:38 | 21.13062 | 72.83481 | 2950 ft | 266 kts | 162° |
| 2026-04-23 19:39 | 21.11266 | 72.83713 | 3001 ft | 259 kts | 192° |
| 2026-04-23 19:39 | 21.09520 | 72.83296 | 3006 ft | 256 kts | 199° |
| 2026-04-23 19:39 | 21.07865 | 72.82646 | 3010 ft | 250 kts | 217° |
| 2026-04-23 19:39 | 21.06566 | 72.81441 | 3021 ft | 247 kts | 230° |
| 2026-04-23 19:40 | 21.05474 | 72.80031 | 3023 ft | 245 kts | 238° |
| 2026-04-23 19:40 | 21.04516 | 72.78528 | 3021 ft | 244 kts | 240° |
| 2026-04-23 19:40 | 21.03578 | 72.77015 | 3021 ft | 244 kts | 240° |
| 2026-04-23 19:40 | 21.02643 | 72.75503 | 2961 ft | 243 kts | 242° |
| 2026-04-23 19:41 | 21.01996 | 72.73868 | 2636 ft | 237 kts | 258° |
| 2026-04-23 19:41 | 21.01594 | 72.72186 | 2470 ft | 228 kts | 260° |
| 2026-04-23 19:41 | 21.01405 | 72.70584 | 2412 ft | 207 kts | 277° |
| 2026-04-23 19:41 | 21.01919 | 72.69270 | 2307 ft | 190 kts | 315° |
| 2026-04-23 19:42 | 21.03080 | 72.68693 | 2171 ft | 189 kts | 351° |
| 2026-04-23 19:42 | 21.04386 | 72.68801 | 1921 ft | 190 kts | 13° |
| 2026-04-23 19:42 | 21.05585 | 72.69299 | 1655 ft | 179 kts | 18° |
| 2026-04-23 19:42 | 21.06641 | 72.69932 | 1315 ft | 172 kts | 32° |
| 2026-04-23 19:43 | 21.07530 | 72.70716 | 985 ft | 159 kts | 31° |
| 2026-04-23 19:43 | 21.08411 | 72.71398 | 697 ft | 153 kts | 35° |
| 2026-04-23 19:43 | 21.09190 | 72.72160 | 517 ft | 151 kts | 41° |
| 2026-04-23 19:43 | 21.10030 | 72.72809 | 276 ft | 147 kts | 34° |
| 2026-04-23 19:44 | 21.10794 | 72.73543 | 45 ft | 146 kts | 41° |
| 2026-04-23 19:44 | 21.11464 | 72.74215 | 26 ft | 106 kts | 42° |
| 2026-04-23 19:44 | 21.11836 | 72.74585 | 25 ft | 33 kts | 43° |
| 2026-04-23 19:44 | 21.11950 | 72.74689 | 25 ft | 11 kts | 19° |
| 2026-04-23 19:45 | 21.12011 | 72.74655 | 25 ft | 9 kts | 315° |
| 2026-04-23 19:45 | 21.12052 | 72.74608 | 27 ft | 8 kts | 313° |
| 2026-04-23 19:45 | 21.12086 | 72.74568 | 27 ft | 7 kts | 312° |
| 2026-04-23 19:45 | 21.12091 | 72.74523 | 28 ft | 8 kts | 249° |
| 2026-04-23 19:46 | 21.12036 | 72.74464 | 28 ft | 13 kts | 224° |
| 2026-04-23 19:46 | 21.11987 | 72.74395 | 26 ft | 11 kts | 262° |
| 2026-04-23 19:46 | 21.12003 | 72.74326 | 31 ft | 8 kts | 310° |
| 2026-04-23 19:46 | 21.12011 | 72.74317 | 30 ft | 0 kts | 317° |